sensor_id;sensor_type;location;lat;lon;timestamp;P1;durP1;ratioP1;P2;durP2;ratioP2
48835;SDS011;62581;47.342;7.908;2023-11-19T00:01:04;15.30;;;10.82;;
48835;SDS011;62581;47.342;7.908;2023-11-19T00:03:31;17.05;;;10.65;;
48835;SDS011;62581;47.342;7.908;2023-11-19T00:06:00;15.55;;;10.52;;
48835;SDS011;62581;47.342;7.908;2023-11-19T00:08:29;13.00;;;9.70;;
48835;SDS011;62581;47.342;7.908;2023-11-19T00:10:56;13.40;;;9.45;;
48835;SDS011;62581;47.342;7.908;2023-11-19T00:13:23;14.88;;;9.77;;
48835;SDS011;62581;47.342;7.908;2023-11-19T00:15:51;11.70;;;9.50;;
48835;SDS011;62581;47.342;7.908;2023-11-19T00:18:18;14.55;;;9.35;;
48835;SDS011;62581;47.342;7.908;2023-11-19T00:20:45;14.32;;;10.07;;
48835;SDS011;62581;47.342;7.908;2023-11-19T00:23:12;15.82;;;10.20;;
48835;SDS011;62581;47.342;7.908;2023-11-19T00:25:40;13.57;;;10.00;;
48835;SDS011;62581;47.342;7.908;2023-11-19T00:28:07;12.85;;;10.00;;
48835;SDS011;62581;47.342;7.908;2023-11-19T00:30:34;12.05;;;9.18;;
48835;SDS011;62581;47.342;7.908;2023-11-19T00:33:01;14.55;;;9.45;;
48835;SDS011;62581;47.342;7.908;2023-11-19T00:35:28;14.18;;;9.32;;
48835;SDS011;62581;47.342;7.908;2023-11-19T00:37:56;12.95;;;9.48;;
48835;SDS011;62581;47.342;7.908;2023-11-19T00:40:23;16.38;;;10.82;;
48835;SDS011;62581;47.342;7.908;2023-11-19T00:42:52;13.48;;;10.05;;
48835;SDS011;62581;47.342;7.908;2023-11-19T00:45:19;15.90;;;11.30;;
48835;SDS011;62581;47.342;7.908;2023-11-19T00:47:46;15.88;;;11.23;;
48835;SDS011;62581;47.342;7.908;2023-11-19T00:50:14;17.58;;;12.00;;
48835;SDS011;62581;47.342;7.908;2023-11-19T00:52:40;15.10;;;10.80;;
48835;SDS011;62581;47.342;7.908;2023-11-19T00:55:08;15.70;;;11.30;;
48835;SDS011;62581;47.342;7.908;2023-11-19T01:00:05;15.52;;;11.75;;
48835;SDS011;62581;47.342;7.908;2023-11-19T01:02:43;14.43;;;10.85;;
48835;SDS011;62581;47.342;7.908;2023-11-19T01:05:10;16.80;;;10.88;;
48835;SDS011;62581;47.342;7.908;2023-11-19T01:10:06;17.02;;;10.95;;
48835;SDS011;62581;47.342;7.908;2023-11-19T01:12:33;15.30;;;10.13;;
48835;SDS011;62581;47.342;7.908;2023-11-19T01:15:00;13.20;;;9.60;;
48835;SDS011;62581;47.342;7.908;2023-11-19T01:17:29;14.48;;;10.27;;
48835;SDS011;62581;47.342;7.908;2023-11-19T01:19:56;15.93;;;9.73;;
48835;SDS011;62581;47.342;7.908;2023-11-19T01:22:23;16.50;;;11.88;;
48835;SDS011;62581;47.342;7.908;2023-11-19T01:24:51;17.90;;;10.97;;
48835;SDS011;62581;47.342;7.908;2023-11-19T01:27:19;16.30;;;11.65;;
48835;SDS011;62581;47.342;7.908;2023-11-19T01:29:46;14.70;;;11.18;;
48835;SDS011;62581;47.342;7.908;2023-11-19T01:32:13;14.45;;;10.40;;
48835;SDS011;62581;47.342;7.908;2023-11-19T01:34:41;19.60;;;11.25;;
48835;SDS011;62581;47.342;7.908;2023-11-19T01:37:08;17.73;;;10.50;;
48835;SDS011;62581;47.342;7.908;2023-11-19T01:42:04;16.98;;;10.45;;
48835;SDS011;62581;47.342;7.908;2023-11-19T01:44:31;15.93;;;9.68;;
48835;SDS011;62581;47.342;7.908;2023-11-19T01:46:58;13.63;;;8.32;;
48835;SDS011;62581;47.342;7.908;2023-11-19T01:49:26;9.80;;;6.88;;
48835;SDS011;62581;47.342;7.908;2023-11-19T01:51:55;11.25;;;7.03;;
48835;SDS011;62581;47.342;7.908;2023-11-19T01:54:24;11.80;;;7.32;;
48835;SDS011;62581;47.342;7.908;2023-11-19T01:56:51;11.40;;;7.80;;
48835;SDS011;62581;47.342;7.908;2023-11-19T01:59:21;11.15;;;7.65;;
48835;SDS011;62581;47.342;7.908;2023-11-19T02:01:52;8.20;;;7.15;;
48835;SDS011;62581;47.342;7.908;2023-11-19T02:04:20;15.20;;;8.90;;
48835;SDS011;62581;47.342;7.908;2023-11-19T02:06:48;11.75;;;8.77;;
48835;SDS011;62581;47.342;7.908;2023-11-19T02:09:20;10.85;;;8.48;;
48835;SDS011;62581;47.342;7.908;2023-11-19T02:11:47;10.82;;;7.93;;
48835;SDS011;62581;47.342;7.908;2023-11-19T02:14:16;12.55;;;7.70;;
48835;SDS011;62581;47.342;7.908;2023-11-19T02:16:45;9.70;;;7.25;;
48835;SDS011;62581;47.342;7.908;2023-11-19T02:19:12;11.50;;;7.30;;
48835;SDS011;62581;47.342;7.908;2023-11-19T02:21:39;9.65;;;6.45;;
48835;SDS011;62581;47.342;7.908;2023-11-19T02:24:08;10.15;;;7.15;;
48835;SDS011;62581;47.342;7.908;2023-11-19T02:26:42;10.38;;;6.82;;
48835;SDS011;62581;47.342;7.908;2023-11-19T02:29:15;8.95;;;6.13;;
48835;SDS011;62581;47.342;7.908;2023-11-19T02:31:42;11.65;;;6.47;;
48835;SDS011;62581;47.342;7.908;2023-11-19T02:34:10;8.82;;;6.72;;
48835;SDS011;62581;47.342;7.908;2023-11-19T02:36:38;8.23;;;5.85;;
48835;SDS011;62581;47.342;7.908;2023-11-19T02:39:06;8.02;;;5.55;;
48835;SDS011;62581;47.342;7.908;2023-11-19T02:41:37;6.65;;;4.68;;
48835;SDS011;62581;47.342;7.908;2023-11-19T02:44:05;7.80;;;5.60;;
48835;SDS011;62581;47.342;7.908;2023-11-19T02:46:33;7.65;;;5.60;;
48835;SDS011;62581;47.342;7.908;2023-11-19T02:49:00;9.75;;;5.20;;
48835;SDS011;62581;47.342;7.908;2023-11-19T02:51:27;7.82;;;5.07;;
48835;SDS011;62581;47.342;7.908;2023-11-19T02:53:55;7.23;;;5.60;;
48835;SDS011;62581;47.342;7.908;2023-11-19T02:56:23;9.13;;;5.97;;
48835;SDS011;62581;47.342;7.908;2023-11-19T02:58:51;9.18;;;6.15;;
48835;SDS011;62581;47.342;7.908;2023-11-19T03:01:22;8.57;;;6.47;;
48835;SDS011;62581;47.342;7.908;2023-11-19T03:03:56;8.93;;;6.32;;
48835;SDS011;62581;47.342;7.908;2023-11-19T03:06:24;7.93;;;6.18;;
48835;SDS011;62581;47.342;7.908;2023-11-19T03:08:52;8.68;;;5.20;;
48835;SDS011;62581;47.342;7.908;2023-11-19T03:11:19;8.68;;;6.47;;
48835;SDS011;62581;47.342;7.908;2023-11-19T03:13:46;8.02;;;5.53;;
48835;SDS011;62581;47.342;7.908;2023-11-19T03:16:13;9.27;;;6.30;;
48835;SDS011;62581;47.342;7.908;2023-11-19T03:18:40;8.52;;;5.65;;
48835;SDS011;62581;47.342;7.908;2023-11-19T03:21:08;10.48;;;6.20;;
48835;SDS011;62581;47.342;7.908;2023-11-19T03:23:35;9.02;;;5.80;;
48835;SDS011;62581;47.342;7.908;2023-11-19T03:26:05;9.13;;;6.03;;
48835;SDS011;62581;47.342;7.908;2023-11-19T03:28:33;9.23;;;6.55;;
48835;SDS011;62581;47.342;7.908;2023-11-19T03:31:00;13.35;;;6.30;;
48835;SDS011;62581;47.342;7.908;2023-11-19T03:33:27;10.60;;;7.22;;
48835;SDS011;62581;47.342;7.908;2023-11-19T03:35:54;7.97;;;5.70;;
48835;SDS011;62581;47.342;7.908;2023-11-19T03:38:24;6.05;;;4.05;;
48835;SDS011;62581;47.342;7.908;2023-11-19T03:40:51;11.13;;;7.07;;
48835;SDS011;62581;47.342;7.908;2023-11-19T03:43:18;11.20;;;6.10;;
48835;SDS011;62581;47.342;7.908;2023-11-19T03:45:45;10.00;;;6.78;;
48835;SDS011;62581;47.342;7.908;2023-11-19T03:48:13;8.10;;;5.55;;
48835;SDS011;62581;47.342;7.908;2023-11-19T03:50:41;7.70;;;4.85;;
48835;SDS011;62581;47.342;7.908;2023-11-19T03:53:08;7.30;;;5.82;;
48835;SDS011;62581;47.342;7.908;2023-11-19T03:55:37;6.68;;;4.78;;
48835;SDS011;62581;47.342;7.908;2023-11-19T03:58:04;9.05;;;6.20;;
48835;SDS011;62581;47.342;7.908;2023-11-19T04:00:31;11.25;;;5.65;;
48835;SDS011;62581;47.342;7.908;2023-11-19T04:02:58;9.05;;;6.07;;
48835;SDS011;62581;47.342;7.908;2023-11-19T04:05:25;7.43;;;4.95;;
48835;SDS011;62581;47.342;7.908;2023-11-19T04:07:52;9.88;;;6.10;;
48835;SDS011;62581;47.342;7.908;2023-11-19T04:10:19;8.80;;;5.22;;
48835;SDS011;62581;47.342;7.908;2023-11-19T04:12:48;7.78;;;5.43;;
48835;SDS011;62581;47.342;7.908;2023-11-19T04:15:16;6.68;;;5.03;;
48835;SDS011;62581;47.342;7.908;2023-11-19T04:17:43;10.65;;;5.93;;
48835;SDS011;62581;47.342;7.908;2023-11-19T04:20:10;8.75;;;6.13;;
48835;SDS011;62581;47.342;7.908;2023-11-19T04:25:06;7.82;;;5.65;;
48835;SDS011;62581;47.342;7.908;2023-11-19T04:27:33;7.22;;;5.20;;
48835;SDS011;62581;47.342;7.908;2023-11-19T04:30:02;8.30;;;5.50;;
48835;SDS011;62581;47.342;7.908;2023-11-19T04:32:30;8.00;;;6.25;;
48835;SDS011;62581;47.342;7.908;2023-11-19T04:34:57;8.48;;;5.47;;
48835;SDS011;62581;47.342;7.908;2023-11-19T04:37:24;10.10;;;5.55;;
48835;SDS011;62581;47.342;7.908;2023-11-19T04:39:51;9.32;;;5.75;;
48835;SDS011;62581;47.342;7.908;2023-11-19T04:42:18;8.70;;;6.25;;
48835;SDS011;62581;47.342;7.908;2023-11-19T04:44:48;7.75;;;5.70;;
48835;SDS011;62581;47.342;7.908;2023-11-19T04:47:16;7.47;;;4.88;;
48835;SDS011;62581;47.342;7.908;2023-11-19T04:49:43;7.82;;;5.30;;
48835;SDS011;62581;47.342;7.908;2023-11-19T04:52:10;6.50;;;4.93;;
48835;SDS011;62581;47.342;7.908;2023-11-19T04:54:40;8.27;;;5.50;;
48835;SDS011;62581;47.342;7.908;2023-11-19T04:57:08;7.43;;;5.78;;
48835;SDS011;62581;47.342;7.908;2023-11-19T04:59:36;7.03;;;5.45;;
48835;SDS011;62581;47.342;7.908;2023-11-19T05:02:03;7.50;;;6.22;;
48835;SDS011;62581;47.342;7.908;2023-11-19T05:04:32;9.05;;;6.50;;
48835;SDS011;62581;47.342;7.908;2023-11-19T05:06:58;9.90;;;6.25;;
48835;SDS011;62581;47.342;7.908;2023-11-19T05:09:25;9.40;;;6.80;;
48835;SDS011;62581;47.342;7.908;2023-11-19T05:11:53;10.05;;;6.18;;
48835;SDS011;62581;47.342;7.908;2023-11-19T05:14:20;9.73;;;6.00;;
48835;SDS011;62581;47.342;7.908;2023-11-19T05:16:47;8.88;;;6.10;;
48835;SDS011;62581;47.342;7.908;2023-11-19T05:19:14;9.80;;;6.28;;
48835;SDS011;62581;47.342;7.908;2023-11-19T05:21:43;7.85;;;4.80;;
48835;SDS011;62581;47.342;7.908;2023-11-19T05:24:10;8.05;;;5.07;;
48835;SDS011;62581;47.342;7.908;2023-11-19T05:26:38;5.43;;;4.60;;
48835;SDS011;62581;47.342;7.908;2023-11-19T05:29:05;6.13;;;4.75;;
48835;SDS011;62581;47.342;7.908;2023-11-19T05:31:32;6.13;;;4.50;;
48835;SDS011;62581;47.342;7.908;2023-11-19T05:33:59;5.68;;;4.72;;
48835;SDS011;62581;47.342;7.908;2023-11-19T05:36:26;6.72;;;4.47;;
48835;SDS011;62581;47.342;7.908;2023-11-19T05:38:55;9.55;;;5.15;;
48835;SDS011;62581;47.342;7.908;2023-11-19T05:41:22;7.18;;;4.88;;
48835;SDS011;62581;47.342;7.908;2023-11-19T05:43:49;6.38;;;4.70;;
48835;SDS011;62581;47.342;7.908;2023-11-19T05:46:16;7.55;;;5.00;;
48835;SDS011;62581;47.342;7.908;2023-11-19T05:48:43;7.72;;;5.45;;
48835;SDS011;62581;47.342;7.908;2023-11-19T05:51:11;7.38;;;5.45;;
48835;SDS011;62581;47.342;7.908;2023-11-19T05:53:39;8.23;;;5.47;;
48835;SDS011;62581;47.342;7.908;2023-11-19T05:56:08;8.43;;;5.10;;
48835;SDS011;62581;47.342;7.908;2023-11-19T05:58:35;10.40;;;6.28;;
48835;SDS011;62581;47.342;7.908;2023-11-19T06:01:02;9.15;;;6.18;;
48835;SDS011;62581;47.342;7.908;2023-11-19T06:03:32;8.07;;;5.93;;
48835;SDS011;62581;47.342;7.908;2023-11-19T06:05:59;7.90;;;6.32;;
48835;SDS011;62581;47.342;7.908;2023-11-19T06:08:26;8.18;;;5.53;;
48835;SDS011;62581;47.342;7.908;2023-11-19T06:10:53;9.98;;;6.80;;
48835;SDS011;62581;47.342;7.908;2023-11-19T06:13:21;6.03;;;5.15;;
48835;SDS011;62581;47.342;7.908;2023-11-19T06:18:16;7.25;;;4.93;;
48835;SDS011;62581;47.342;7.908;2023-11-19T06:20:45;5.63;;;4.32;;
48835;SDS011;62581;47.342;7.908;2023-11-19T06:23:12;6.40;;;4.40;;
48835;SDS011;62581;47.342;7.908;2023-11-19T06:25:39;6.55;;;5.32;;
48835;SDS011;62581;47.342;7.908;2023-11-19T06:28:06;5.80;;;4.43;;
48835;SDS011;62581;47.342;7.908;2023-11-19T06:30:35;11.98;;;4.50;;
48835;SDS011;62581;47.342;7.908;2023-11-19T06:33:02;8.38;;;4.88;;
48835;SDS011;62581;47.342;7.908;2023-11-19T06:35:29;8.70;;;4.97;;
48835;SDS011;62581;47.342;7.908;2023-11-19T06:38:01;6.22;;;4.90;;
48835;SDS011;62581;47.342;7.908;2023-11-19T06:40:29;5.47;;;4.53;;
48835;SDS011;62581;47.342;7.908;2023-11-19T06:42:56;8.52;;;5.00;;
48835;SDS011;62581;47.342;7.908;2023-11-19T06:45:23;5.78;;;4.90;;
48835;SDS011;62581;47.342;7.908;2023-11-19T06:47:52;5.97;;;4.93;;
48835;SDS011;62581;47.342;7.908;2023-11-19T06:50:19;5.50;;;4.63;;
48835;SDS011;62581;47.342;7.908;2023-11-19T06:52:46;4.97;;;4.45;;
48835;SDS011;62581;47.342;7.908;2023-11-19T06:55:13;5.45;;;4.70;;
48835;SDS011;62581;47.342;7.908;2023-11-19T06:57:41;7.32;;;5.50;;
48835;SDS011;62581;47.342;7.908;2023-11-19T07:00:08;5.72;;;4.28;;
48835;SDS011;62581;47.342;7.908;2023-11-19T07:02:36;4.95;;;3.90;;
48835;SDS011;62581;47.342;7.908;2023-11-19T07:05:06;6.53;;;4.50;;
48835;SDS011;62581;47.342;7.908;2023-11-19T07:07:33;5.88;;;4.28;;
48835;SDS011;62581;47.342;7.908;2023-11-19T07:10:00;5.78;;;4.45;;
48835;SDS011;62581;47.342;7.908;2023-11-19T07:12:29;6.47;;;4.60;;
48835;SDS011;62581;47.342;7.908;2023-11-19T07:14:57;6.70;;;4.30;;
48835;SDS011;62581;47.342;7.908;2023-11-19T07:17:23;6.13;;;4.40;;
48835;SDS011;62581;47.342;7.908;2023-11-19T07:19:50;8.15;;;4.63;;
48835;SDS011;62581;47.342;7.908;2023-11-19T07:22:19;5.90;;;4.50;;
48835;SDS011;62581;47.342;7.908;2023-11-19T07:24:46;7.57;;;4.72;;
48835;SDS011;62581;47.342;7.908;2023-11-19T07:27:13;4.45;;;4.05;;
48835;SDS011;62581;47.342;7.908;2023-11-19T07:29:40;5.38;;;4.10;;
48835;SDS011;62581;47.342;7.908;2023-11-19T07:32:09;4.57;;;3.85;;
48835;SDS011;62581;47.342;7.908;2023-11-19T07:37:05;5.30;;;4.05;;
48835;SDS011;62581;47.342;7.908;2023-11-19T07:39:33;5.57;;;3.70;;
48835;SDS011;62581;47.342;7.908;2023-11-19T07:42:03;6.45;;;4.47;;
48835;SDS011;62581;47.342;7.908;2023-11-19T07:44:30;5.30;;;3.97;;
48835;SDS011;62581;47.342;7.908;2023-11-19T07:46:57;4.22;;;3.47;;
48835;SDS011;62581;47.342;7.908;2023-11-19T07:49:24;4.00;;;3.50;;
48835;SDS011;62581;47.342;7.908;2023-11-19T07:51:51;4.50;;;3.55;;
48835;SDS011;62581;47.342;7.908;2023-11-19T07:54:18;5.90;;;3.97;;
48835;SDS011;62581;47.342;7.908;2023-11-19T07:56:47;4.07;;;2.92;;
48835;SDS011;62581;47.342;7.908;2023-11-19T07:59:15;5.32;;;3.28;;
48835;SDS011;62581;47.342;7.908;2023-11-19T08:01:42;4.28;;;3.30;;
48835;SDS011;62581;47.342;7.908;2023-11-19T08:04:09;5.55;;;3.53;;
48835;SDS011;62581;47.342;7.908;2023-11-19T08:06:36;3.65;;;3.35;;
48835;SDS011;62581;47.342;7.908;2023-11-19T08:09:03;4.57;;;3.50;;
48835;SDS011;62581;47.342;7.908;2023-11-19T08:11:31;3.83;;;2.92;;
48835;SDS011;62581;47.342;7.908;2023-11-19T08:14:00;5.85;;;3.55;;
48835;SDS011;62581;47.342;7.908;2023-11-19T08:16:26;4.40;;;3.50;;
48835;SDS011;62581;47.342;7.908;2023-11-19T08:18:53;7.47;;;3.50;;
48835;SDS011;62581;47.342;7.908;2023-11-19T08:21:22;5.43;;;3.53;;
48835;SDS011;62581;47.342;7.908;2023-11-19T08:23:49;6.68;;;4.05;;
48835;SDS011;62581;47.342;7.908;2023-11-19T08:26:16;9.48;;;3.70;;
48835;SDS011;62581;47.342;7.908;2023-11-19T08:28:43;5.68;;;4.00;;
48835;SDS011;62581;47.342;7.908;2023-11-19T08:31:11;6.65;;;4.10;;
48835;SDS011;62581;47.342;7.908;2023-11-19T08:33:38;6.95;;;4.05;;
48835;SDS011;62581;47.342;7.908;2023-11-19T08:36:06;5.07;;;3.55;;
48835;SDS011;62581;47.342;7.908;2023-11-19T08:38:33;5.30;;;3.50;;
48835;SDS011;62581;47.342;7.908;2023-11-19T08:41:01;6.38;;;3.40;;
48835;SDS011;62581;47.342;7.908;2023-11-19T08:43:28;8.02;;;3.53;;
48835;SDS011;62581;47.342;7.908;2023-11-19T08:48:25;5.47;;;3.42;;
48835;SDS011;62581;47.342;7.908;2023-11-19T08:50:52;5.18;;;3.03;;
48835;SDS011;62581;47.342;7.908;2023-11-19T08:53:19;2.63;;;2.42;;
48835;SDS011;62581;47.342;7.908;2023-11-19T08:55:46;4.05;;;3.03;;
48835;SDS011;62581;47.342;7.908;2023-11-19T08:58:14;3.10;;;2.42;;
48835;SDS011;62581;47.342;7.908;2023-11-19T09:00:41;4.20;;;2.40;;
48835;SDS011;62581;47.342;7.908;2023-11-19T09:03:08;3.65;;;2.40;;
48835;SDS011;62581;47.342;7.908;2023-11-19T09:05:37;3.40;;;2.55;;
48835;SDS011;62581;47.342;7.908;2023-11-19T09:10:31;3.95;;;2.15;;
48835;SDS011;62581;47.342;7.908;2023-11-19T09:12:58;4.80;;;2.72;;
48835;SDS011;62581;47.342;7.908;2023-11-19T09:15:25;5.20;;;3.08;;
48835;SDS011;62581;47.342;7.908;2023-11-19T09:17:52;6.15;;;2.88;;
48835;SDS011;62581;47.342;7.908;2023-11-19T09:20:19;5.55;;;3.67;;
48835;SDS011;62581;47.342;7.908;2023-11-19T09:22:47;6.95;;;4.95;;
48835;SDS011;62581;47.342;7.908;2023-11-19T09:25:14;9.38;;;4.45;;
48835;SDS011;62581;47.342;7.908;2023-11-19T09:27:42;6.70;;;4.57;;
48835;SDS011;62581;47.342;7.908;2023-11-19T09:30:09;8.00;;;4.57;;
48835;SDS011;62581;47.342;7.908;2023-11-19T09:32:37;5.70;;;4.22;;
48835;SDS011;62581;47.342;7.908;2023-11-19T09:35:05;6.10;;;4.72;;
48835;SDS011;62581;47.342;7.908;2023-11-19T09:37:33;8.45;;;4.55;;
48835;SDS011;62581;47.342;7.908;2023-11-19T09:40:01;6.80;;;3.75;;
48835;SDS011;62581;47.342;7.908;2023-11-19T09:42:29;7.82;;;3.22;;
48835;SDS011;62581;47.342;7.908;2023-11-19T09:45:02;4.80;;;3.38;;
48835;SDS011;62581;47.342;7.908;2023-11-19T09:47:37;8.35;;;3.58;;
48835;SDS011;62581;47.342;7.908;2023-11-19T09:50:04;5.68;;;4.22;;
48835;SDS011;62581;47.342;7.908;2023-11-19T09:52:32;4.57;;;3.67;;
48835;SDS011;62581;47.342;7.908;2023-11-19T09:54:59;6.90;;;3.53;;
48835;SDS011;62581;47.342;7.908;2023-11-19T09:57:27;4.13;;;3.08;;
48835;SDS011;62581;47.342;7.908;2023-11-19T09:59:58;4.68;;;3.13;;
48835;SDS011;62581;47.342;7.908;2023-11-19T10:02:25;4.03;;;3.22;;
48835;SDS011;62581;47.342;7.908;2023-11-19T10:04:55;3.83;;;3.15;;
48835;SDS011;62581;47.342;7.908;2023-11-19T10:07:22;5.95;;;3.33;;
48835;SDS011;62581;47.342;7.908;2023-11-19T10:09:49;4.00;;;3.10;;
48835;SDS011;62581;47.342;7.908;2023-11-19T10:12:16;3.97;;;2.95;;
48835;SDS011;62581;47.342;7.908;2023-11-19T10:14:44;5.63;;;3.40;;
48835;SDS011;62581;47.342;7.908;2023-11-19T10:17:14;4.93;;;2.92;;
48835;SDS011;62581;47.342;7.908;2023-11-19T10:19:41;6.00;;;3.28;;
48835;SDS011;62581;47.342;7.908;2023-11-19T10:22:10;6.35;;;3.25;;
48835;SDS011;62581;47.342;7.908;2023-11-19T10:24:40;5.05;;;3.30;;
48835;SDS011;62581;47.342;7.908;2023-11-19T10:27:07;2.83;;;2.63;;
48835;SDS011;62581;47.342;7.908;2023-11-19T10:29:35;4.38;;;3.00;;
48835;SDS011;62581;47.342;7.908;2023-11-19T10:32:07;7.05;;;2.83;;
48835;SDS011;62581;47.342;7.908;2023-11-19T10:34:42;4.70;;;2.53;;
48835;SDS011;62581;47.342;7.908;2023-11-19T10:37:11;5.32;;;3.20;;
48835;SDS011;62581;47.342;7.908;2023-11-19T10:39:54;4.13;;;2.85;;
48835;SDS011;62581;47.342;7.908;2023-11-19T10:42:22;4.53;;;2.80;;
48835;SDS011;62581;47.342;7.908;2023-11-19T10:44:49;5.75;;;2.90;;
48835;SDS011;62581;47.342;7.908;2023-11-19T10:47:19;5.45;;;2.92;;
48835;SDS011;62581;47.342;7.908;2023-11-19T10:49:47;4.40;;;2.60;;
48835;SDS011;62581;47.342;7.908;2023-11-19T10:52:17;3.65;;;2.90;;
48835;SDS011;62581;47.342;7.908;2023-11-19T10:54:47;5.10;;;2.92;;
48835;SDS011;62581;47.342;7.908;2023-11-19T10:57:18;4.80;;;2.80;;
48835;SDS011;62581;47.342;7.908;2023-11-19T10:59:47;3.35;;;2.83;;
48835;SDS011;62581;47.342;7.908;2023-11-19T11:02:21;7.57;;;2.50;;
48835;SDS011;62581;47.342;7.908;2023-11-19T11:04:52;5.05;;;3.25;;
48835;SDS011;62581;47.342;7.908;2023-11-19T11:07:21;5.35;;;2.83;;
48835;SDS011;62581;47.342;7.908;2023-11-19T11:09:51;5.13;;;2.40;;
48835;SDS011;62581;47.342;7.908;2023-11-19T11:12:19;3.92;;;2.92;;
48835;SDS011;62581;47.342;7.908;2023-11-19T11:14:50;2.67;;;2.45;;
48835;SDS011;62581;47.342;7.908;2023-11-19T11:17:20;3.75;;;2.63;;
48835;SDS011;62581;47.342;7.908;2023-11-19T11:19:52;4.65;;;2.72;;
48835;SDS011;62581;47.342;7.908;2023-11-19T11:22:19;4.90;;;2.53;;
48835;SDS011;62581;47.342;7.908;2023-11-19T11:24:56;4.60;;;2.67;;
48835;SDS011;62581;47.342;7.908;2023-11-19T11:27:54;3.35;;;2.60;;
48835;SDS011;62581;47.342;7.908;2023-11-19T11:30:31;3.53;;;2.60;;
48835;SDS011;62581;47.342;7.908;2023-11-19T11:33:15;4.57;;;2.47;;
48835;SDS011;62581;47.342;7.908;2023-11-19T11:35:55;2.50;;;2.22;;
48835;SDS011;62581;47.342;7.908;2023-11-19T11:38:42;3.83;;;2.15;;
48835;SDS011;62581;47.342;7.908;2023-11-19T11:41:17;2.33;;;2.10;;
48835;SDS011;62581;47.342;7.908;2023-11-19T11:43:46;4.88;;;2.05;;
48835;SDS011;62581;47.342;7.908;2023-11-19T11:49:26;3.65;;;2.40;;
48835;SDS011;62581;47.342;7.908;2023-11-19T11:51:58;3.08;;;2.08;;
48835;SDS011;62581;47.342;7.908;2023-11-19T11:54:26;3.05;;;2.33;;
48835;SDS011;62581;47.342;7.908;2023-11-19T11:57:06;2.70;;;2.10;;
48835;SDS011;62581;47.342;7.908;2023-11-19T11:59:43;2.85;;;2.20;;
48835;SDS011;62581;47.342;7.908;2023-11-19T12:02:12;3.75;;;1.98;;
48835;SDS011;62581;47.342;7.908;2023-11-19T12:04:42;3.03;;;2.72;;
48835;SDS011;62581;47.342;7.908;2023-11-19T12:07:14;3.05;;;1.90;;
48835;SDS011;62581;47.342;7.908;2023-11-19T12:09:46;3.45;;;2.08;;
48835;SDS011;62581;47.342;7.908;2023-11-19T12:12:17;3.22;;;1.70;;
48835;SDS011;62581;47.342;7.908;2023-11-19T12:15:03;3.20;;;1.60;;
48835;SDS011;62581;47.342;7.908;2023-11-19T12:17:41;8.38;;;1.95;;
48835;SDS011;62581;47.342;7.908;2023-11-19T12:20:19;2.40;;;1.88;;
48835;SDS011;62581;47.342;7.908;2023-11-19T12:22:49;4.32;;;2.10;;
48835;SDS011;62581;47.342;7.908;2023-11-19T12:25:16;2.80;;;1.67;;
48835;SDS011;62581;47.342;7.908;2023-11-19T12:27:45;2.53;;;1.80;;
48835;SDS011;62581;47.342;7.908;2023-11-19T12:30:17;1.98;;;1.80;;
48835;SDS011;62581;47.342;7.908;2023-11-19T12:32:45;4.00;;;2.00;;
48835;SDS011;62581;47.342;7.908;2023-11-19T12:35:14;3.17;;;1.60;;
48835;SDS011;62581;47.342;7.908;2023-11-19T12:37:43;2.25;;;1.50;;
48835;SDS011;62581;47.342;7.908;2023-11-19T12:40:14;2.10;;;1.38;;
48835;SDS011;62581;47.342;7.908;2023-11-19T12:42:43;2.30;;;1.50;;
48835;SDS011;62581;47.342;7.908;2023-11-19T12:45:10;1.67;;;1.42;;
48835;SDS011;62581;47.342;7.908;2023-11-19T12:47:38;1.92;;;1.30;;
48835;SDS011;62581;47.342;7.908;2023-11-19T12:50:06;1.80;;;1.33;;
48835;SDS011;62581;47.342;7.908;2023-11-19T12:52:34;3.50;;;1.15;;
48835;SDS011;62581;47.342;7.908;2023-11-19T12:55:03;2.30;;;1.30;;
48835;SDS011;62581;47.342;7.908;2023-11-19T12:57:37;0.93;;;0.88;;
48835;SDS011;62581;47.342;7.908;2023-11-19T13:00:06;2.03;;;1.23;;
48835;SDS011;62581;47.342;7.908;2023-11-19T13:02:45;1.63;;;0.98;;
48835;SDS011;62581;47.342;7.908;2023-11-19T13:07:58;1.45;;;1.17;;
48835;SDS011;62581;47.342;7.908;2023-11-19T13:10:27;1.40;;;1.13;;
48835;SDS011;62581;47.342;7.908;2023-11-19T13:12:59;2.83;;;1.10;;
48835;SDS011;62581;47.342;7.908;2023-11-19T13:15:31;3.13;;;1.00;;
48835;SDS011;62581;47.342;7.908;2023-11-19T13:17:58;1.20;;;0.90;;
48835;SDS011;62581;47.342;7.908;2023-11-19T13:20:26;2.80;;;1.08;;
48835;SDS011;62581;47.342;7.908;2023-11-19T13:22:56;2.55;;;1.20;;
48835;SDS011;62581;47.342;7.908;2023-11-19T13:25:24;1.40;;;1.08;;
48835;SDS011;62581;47.342;7.908;2023-11-19T13:27:52;2.00;;;1.08;;
48835;SDS011;62581;47.342;7.908;2023-11-19T13:30:20;2.65;;;1.77;;
48835;SDS011;62581;47.342;7.908;2023-11-19T13:32:47;1.40;;;1.23;;
48835;SDS011;62581;47.342;7.908;2023-11-19T13:35:14;1.42;;;1.20;;
48835;SDS011;62581;47.342;7.908;2023-11-19T13:37:42;1.30;;;1.20;;
48835;SDS011;62581;47.342;7.908;2023-11-19T13:40:10;1.83;;;1.00;;
48835;SDS011;62581;47.342;7.908;2023-11-19T13:42:39;1.52;;;0.95;;
48835;SDS011;62581;47.342;7.908;2023-11-19T13:45:09;0.95;;;0.80;;
48835;SDS011;62581;47.342;7.908;2023-11-19T13:47:38;2.20;;;1.63;;
48835;SDS011;62581;47.342;7.908;2023-11-19T13:52:35;1.73;;;1.25;;
48835;SDS011;62581;47.342;7.908;2023-11-19T13:57:31;1.30;;;0.95;;
48835;SDS011;62581;47.342;7.908;2023-11-19T13:59:59;2.00;;;1.10;;
48835;SDS011;62581;47.342;7.908;2023-11-19T14:02:28;1.48;;;0.80;;
48835;SDS011;62581;47.342;7.908;2023-11-19T14:04:55;2.83;;;1.05;;
48835;SDS011;62581;47.342;7.908;2023-11-19T14:07:22;1.42;;;1.20;;
48835;SDS011;62581;47.342;7.908;2023-11-19T14:09:49;1.23;;;0.80;;
48835;SDS011;62581;47.342;7.908;2023-11-19T14:12:16;1.27;;;1.17;;
48835;SDS011;62581;47.342;7.908;2023-11-19T14:14:43;1.40;;;1.10;;
48835;SDS011;62581;47.342;7.908;2023-11-19T14:17:10;2.15;;;1.02;;
48835;SDS011;62581;47.342;7.908;2023-11-19T14:19:39;1.00;;;0.80;;
48835;SDS011;62581;47.342;7.908;2023-11-19T14:22:06;6.05;;;1.38;;
48835;SDS011;62581;47.342;7.908;2023-11-19T14:24:33;1.58;;;1.00;;
48835;SDS011;62581;47.342;7.908;2023-11-19T14:27:00;3.50;;;1.10;;
48835;SDS011;62581;47.342;7.908;2023-11-19T14:29:27;2.10;;;1.25;;
48835;SDS011;62581;47.342;7.908;2023-11-19T14:31:55;5.32;;;1.23;;
48835;SDS011;62581;47.342;7.908;2023-11-19T14:34:22;1.55;;;1.10;;
48835;SDS011;62581;47.342;7.908;2023-11-19T14:36:51;2.67;;;1.13;;
48835;SDS011;62581;47.342;7.908;2023-11-19T14:39:19;2.50;;;1.20;;
48835;SDS011;62581;47.342;7.908;2023-11-19T14:41:46;3.78;;;1.10;;
48835;SDS011;62581;47.342;7.908;2023-11-19T14:44:12;2.50;;;1.10;;
48835;SDS011;62581;47.342;7.908;2023-11-19T14:46:39;3.05;;;1.08;;
48835;SDS011;62581;47.342;7.908;2023-11-19T14:49:07;2.55;;;1.05;;
48835;SDS011;62581;47.342;7.908;2023-11-19T14:51:35;2.05;;;1.27;;
48835;SDS011;62581;47.342;7.908;2023-11-19T14:56:31;0.80;;;0.80;;
48835;SDS011;62581;47.342;7.908;2023-11-19T14:58:58;1.95;;;1.20;;
48835;SDS011;62581;47.342;7.908;2023-11-19T15:01:25;2.53;;;1.02;;
48835;SDS011;62581;47.342;7.908;2023-11-19T15:03:53;2.40;;;1.00;;
48835;SDS011;62581;47.342;7.908;2023-11-19T15:06:22;1.52;;;1.10;;
48835;SDS011;62581;47.342;7.908;2023-11-19T15:08:52;1.30;;;1.10;;
48835;SDS011;62581;47.342;7.908;2023-11-19T15:11:21;1.10;;;0.95;;
48835;SDS011;62581;47.342;7.908;2023-11-19T15:13:49;2.15;;;0.98;;
48835;SDS011;62581;47.342;7.908;2023-11-19T15:16:16;2.15;;;0.93;;
48835;SDS011;62581;47.342;7.908;2023-11-19T15:18:49;2.80;;;1.30;;
48835;SDS011;62581;47.342;7.908;2023-11-19T15:21:17;1.35;;;0.90;;
48835;SDS011;62581;47.342;7.908;2023-11-19T15:23:44;0.93;;;0.90;;